TimeMST,TemperatureF,Dew PointF,Humidity,Sea Level PressureIn,VisibilityMPH,Wind Direction,Wind SpeedMPH,Gust SpeedMPH,PrecipitationIn,Events,Conditions,WindDirDegrees,DateUTC
12:53 AM,48.0,7.0,19,29.80,10.0,West,17.3,-,N/A,,Clear,270,2012-11-25 07:53:00
1:53 AM,44.1,8.1,23,29.82,10.0,West,13.8,-,N/A,,Clear,270,2012-11-25 08:53:00
2:53 AM,44.1,10.9,26,29.80,10.0,West,16.1,-,N/A,,Clear,270,2012-11-25 09:53:00
3:53 AM,39.9,12.0,32,29.83,10.0,West,10.4,-,N/A,,Clear,270,2012-11-25 10:53:00
4:53 AM,37.0,12.0,36,29.85,10.0,WSW,11.5,-,N/A,,Clear,250,2012-11-25 11:53:00
5:53 AM,39.0,10.0,30,29.84,10.0,West,8.1,-,N/A,,Clear,260,2012-11-25 12:53:00
6:53 AM,32.0,10.0,40,29.88,10.0,SW,9.2,-,N/A,,Clear,220,2012-11-25 13:53:00
7:53 AM,36.0,10.9,36,29.86,10.0,SSW,9.2,-,N/A,,Clear,200,2012-11-25 14:53:00
8:53 AM,42.1,9.0,26,29.83,10.0,South,9.2,-,N/A,,Clear,180,2012-11-25 15:53:00
9:53 AM,45.0,10.0,24,29.81,10.0,South,8.1,-,N/A,,Clear,170,2012-11-25 16:53:00
10:53 AM,51.1,8.1,18,29.74,10.0,Variable,4.6,-,N/A,,Clear,0,2012-11-25 17:53:00
11:53 AM,55.0,5.0,13,29.69,10.0,West,17.3,28.8,N/A,,Clear,270,2012-11-25 18:53:00
12:02 PM,55.4,5.0,13,29.83,10.0,WNW,16.1,25.3,N/A,,Clear,300,2012-11-25 19:02:00
12:53 PM,59.0,3.0,11,29.64,10.0,West,20.7,32.2,N/A,,Clear,260,2012-11-25 19:53:00
1:53 PM,55.9,5.0,13,29.67,10.0,West,20.7,26.5,N/A,,Mostly Cloudy,260,2012-11-25 20:53:00
2:53 PM,48.9,14.0,25,29.72,10.0,NW,20.7,38.0,N/A,,Overcast,320,2012-11-25 21:53:00
3:53 PM,48.0,16.0,28,29.78,10.0,WNW,18.4,31.1,N/A,,Overcast,290,2012-11-25 22:53:00
4:53 PM,46.0,17.1,31,29.84,10.0,NW,10.4,-,N/A,,Overcast,310,2012-11-25 23:53:00
5:53 PM,45.0,18.0,34,29.86,10.0,North,6.9,-,N/A,,Partly Cloudy,350,2012-11-26 00:53:00
6:53 PM,41.0,19.9,43,29.92,10.0,North,4.6,-,N/A,,Clear,10,2012-11-26 01:53:00
7:53 PM,37.0,21.9,54,29.93,10.0,NNE,8.1,-,N/A,,Scattered Clouds,20,2012-11-26 02:53:00
8:53 PM,30.9,25.0,79,29.95,10.0,NNE,4.6,-,N/A,,Mostly Cloudy,20,2012-11-26 03:53:00
9:25 PM,28.4,24.8,86,29.96,10.0,NNE,9.2,-,N/A,,Mostly Cloudy,20,2012-11-26 04:25:00
9:28 PM,28.4,26.6,93,29.96,2.0,NNE,10.4,-,N/A,,Mostly Cloudy,20,2012-11-26 04:28:00
9:43 PM,28.4,26.6,93,29.97,0.8,NNE,10.4,-,N/A,,Overcast,20,2012-11-26 04:43:00
9:53 PM,28.9,27.0,92,29.97,2.0,North,9.2,-,N/A,,Overcast,10,2012-11-26 04:53:00
10:01 PM,28.4,26.6,93,29.97,6.0,North,8.1,-,N/A,,Overcast,360,2012-11-26 05:01:00
10:09 PM,28.4,26.6,93,29.97,1.8,NNE,8.1,-,N/A,,Overcast,20,2012-11-26 05:09:00
10:20 PM,28.4,26.6,93,29.97,0.2,North,9.2,-,N/A,Fog,Light Freezing Fog,10,2012-11-26 05:20:00
10:35 PM,28.4,26.6,93,29.97,0.5,North,16.1,19.6,N/A,Fog,Light Freezing Fog,10,2012-11-26 05:35:00
10:53 PM,28.9,27.0,92,29.94,0.2,North,10.4,20.7,N/A,Fog,Light Freezing Fog,350,2012-11-26 05:53:00
11:18 PM,28.4,26.6,93,30.01,0.5,North,8.1,17.3,N/A,Fog,Light Freezing Fog,10,2012-11-26 06:18:00
11:25 PM,28.4,28.4,100,30.01,0.2,NNE,9.2,-,N/A,Fog,Light Freezing Fog,20,2012-11-26 06:25:00
11:35 PM,28.4,28.4,100,30.02,0.5,NNE,8.1,-,N/A,Fog,Light Freezing Fog,30,2012-11-26 06:35:00
11:51 PM,28.4,26.6,93,30.02,2.0,North,5.8,-,N/A,,Overcast,10,2012-11-26 06:51:00
11:53 PM,28.0,28.0,100,29.97,2.5,NNE,5.8,-,N/A,,Overcast,30,2012-11-26 06:53:00